Time;durP1;ratioP1;P1;durP2;ratioP2;P2;SDS_P1;SDS_P2;PMS_P1;PMS_P2;Temp;Humidity;BMP_temperature;BMP_pressure;BME280_temperature;BME280_humidity;BME280_pressure;Samples;Min_cycle;Max_cycle;Signal;HPM_P1;HPM_P2
2021/06/03 00:01:09;;;;;;;12.35;7.22;;;;;;;;;;5096072;28;20019;-69
2021/06/03 00:03:36;;;;;;;11.57;6.22;;;;;;;;;;5095086;28;20016;-69
2021/06/03 00:06:05;;;;;;;8.65;5.82;;;;;;;;;;5096349;28;20341;-69
2021/06/03 00:08:31;;;;;;;14.88;6.82;;;;;;;;;;5095134;28;20432;-67
2021/06/03 00:11:00;;;;;;;11.73;6.60;;;;;;;;;;5094984;28;20453;-68
2021/06/03 00:13:27;;;;;;;8.73;5.25;;;;;;;;;;5095871;28;20103;-68
2021/06/03 00:15:54;;;;;;;6.57;5.93;;;;;;;;;;5094922;28;20126;-67
2021/06/03 00:18:21;;;;;;;9.18;5.88;;;;;;;;;;5095811;28;20357;-68
2021/06/03 00:20:47;;;;;;;10.50;5.95;;;;;;;;;;5095817;28;20051;-68
2021/06/03 00:23:13;;;;;;;9.50;6.53;;;;;;;;;;5095642;28;20456;-68
2021/06/03 00:25:39;;;;;;;10.82;5.57;;;;;;;;;;5095688;28;20403;-66
2021/06/03 00:28:06;;;;;;;10.75;6.03;;;;;;;;;;5096141;28;20016;-70
2021/06/03 00:30:32;;;;;;;6.55;5.78;;;;;;;;;;5094248;28;20426;-69
2021/06/03 00:32:58;;;;;;;7.07;5.23;;;;;;;;;;5095579;28;20020;-68
2021/06/03 00:35:25;;;;;;;9.82;5.13;;;;;;;;;;5096279;28;20031;-68
2021/06/03 00:37:51;;;;;;;8.85;5.18;;;;;;;;;;5094089;28;20020;-69
2021/06/03 00:40:18;;;;;;;7.40;5.13;;;;;;;;;;5095571;28;20020;-69
2021/06/03 00:42:44;;;;;;;9.82;4.95;;;;;;;;;;5095271;28;20031;-67
2021/06/03 00:45:12;;;;;;;7.68;4.68;;;;;;;;;;5095850;28;20020;-68
2021/06/03 00:47:38;;;;;;;6.82;5.10;;;;;;;;;;5095461;28;20019;-71
2021/06/03 00:50:25;;;;;;;8.43;5.63;;;;;;;;;;5093867;28;20024;-68
2021/06/03 00:52:51;;;;;;;8.88;3.88;;;;;;;;;;5095256;28;20047;-68
2021/06/03 00:55:18;;;;;;;10.63;5.57;;;;;;;;;;5095421;28;20104;-69
2021/06/03 00:57:44;;;;;;;4.90;4.28;;;;;;;;;;5094738;28;20085;-69
2021/06/03 01:00:12;;;;;;;6.97;6.38;;;;;;;;;;5093618;28;20031;-69
2021/06/03 01:02:38;;;;;;;8.25;4.38;;;;;;;;;;5095166;28;20027;-69
2021/06/03 01:05:08;;;;;;;9.73;4.63;;;;;;;;;;5095122;28;20442;-68
2021/06/03 01:07:34;;;;;;;7.93;5.40;;;;;;;;;;5095424;28;20051;-68
2021/06/03 01:10:05;;;;;;;13.48;5.32;;;;;;;;;;5094774;28;20031;-69
2021/06/03 01:12:46;;;;;;;7.85;4.93;;;;;;;;;;5093532;28;20044;-68
2021/06/03 01:15:13;;;;;;;6.38;4.60;;;;;;;;;;5093637;28;20019;-68
2021/06/03 01:17:39;;;;;;;6.05;4.75;;;;;;;;;;5093372;28;20068;-70
2021/06/03 01:20:06;;;;;;;8.30;5.03;;;;;;;;;;5094851;28;20427;-69
2021/06/03 01:22:51;;;;;;;5.25;4.75;;;;;;;;;;5095394;28;20046;-68
2021/06/03 01:25:18;;;;;;;9.10;5.72;;;;;;;;;;5093182;28;20028;-69
2021/06/03 01:27:44;;;;;;;5.63;5.13;;;;;;;;;;5094764;28;20020;-68
2021/06/03 01:30:21;;;;;;;6.18;4.00;;;;;;;;;;5094650;28;20411;-69
2021/06/03 01:32:50;;;;;;;5.75;5.00;;;;;;;;;;5094348;28;20012;-69
2021/06/03 01:35:19;;;;;;;8.13;5.75;;;;;;;;;;5094849;28;20015;-69
2021/06/03 01:37:46;;;;;;;7.38;4.15;;;;;;;;;;5094269;28;20483;-68
2021/06/03 01:40:13;;;;;;;5.97;4.75;;;;;;;;;;5094139;28;20452;-69
2021/06/03 01:42:39;;;;;;;8.75;5.20;;;;;;;;;;5093245;28;20448;-68
2021/06/03 01:45:06;;;;;;;9.25;5.07;;;;;;;;;;5094156;28;20467;-69
2021/06/03 01:47:33;;;;;;;8.57;5.03;;;;;;;;;;5094077;28;20012;-67
2021/06/03 01:49:59;;;;;;;7.53;4.72;;;;;;;;;;5094531;28;20039;-69
2021/06/03 01:52:25;;;;;;;6.47;4.90;;;;;;;;;;5093058;28;20077;-70
2021/06/03 01:54:52;;;;;;;7.55;4.60;;;;;;;;;;5092701;28;20016;-67
2021/06/03 01:57:21;;;;;;;11.07;5.03;;;;;;;;;;5094322;28;20016;-68
2021/06/03 01:59:48;;;;;;;5.13;4.25;;;;;;;;;;5093836;28;20035;-67
2021/06/03 02:02:14;;;;;;;10.45;4.68;;;;;;;;;;5094170;28;20026;-69
2021/06/03 02:04:40;;;;;;;4.47;4.07;;;;;;;;;;5092937;28;20411;-68
2021/06/03 02:07:06;;;;;;;6.78;3.75;;;;;;;;;;5093539;28;20452;-69
2021/06/03 02:09:32;;;;;;;6.32;3.88;;;;;;;;;;5092775;28;20084;-69
2021/06/03 02:11:58;;;;;;;6.13;3.75;;;;;;;;;;5094053;28;20047;-68
2021/06/03 02:14:26;;;;;;;4.05;3.67;;;;;;;;;;5092475;28;20031;-68
2021/06/03 02:16:59;;;;;;;3.47;3.17;;;;;;;;;;5093749;28;20095;-69
2021/06/03 02:19:32;;;;;;;5.65;3.25;;;;;;;;;;5092397;28;20044;-69
2021/06/03 02:21:59;;;;;;;5.03;3.35;;;;;;;;;;5092694;28;20403;-70
2021/06/03 02:24:26;;;;;;;8.65;4.00;;;;;;;;;;5092645;28;20069;-68
2021/06/03 02:26:52;;;;;;;7.10;4.18;;;;;;;;;;5092347;28;20105;-69
2021/06/03 02:29:19;;;;;;;6.20;3.88;;;;;;;;;;5093323;28;20383;-68
2021/06/03 02:31:45;;;;;;;4.53;3.65;;;;;;;;;;5093890;28;20028;-68
2021/06/03 02:34:11;;;;;;;8.60;4.50;;;;;;;;;;5093847;28;20034;-67
2021/06/03 02:36:38;;;;;;;6.63;3.78;;;;;;;;;;5093548;28;20040;-70
2021/06/03 02:39:05;;;;;;;8.38;4.15;;;;;;;;;;5093718;28;20032;-68
2021/06/03 02:41:31;;;;;;;;;;;;;;;;;;5094449;28;20103;-69
2021/06/03 02:43:57;;;;;;;8.00;3.53;;;;;;;;;;5093776;28;20456;-69
2021/06/03 02:46:24;;;;;;;4.95;4.07;;;;;;;;;;5093457;28;20361;-68
2021/06/03 02:48:50;;;;;;;5.30;4.20;;;;;;;;;;5093912;28;20399;-67
2021/06/03 02:51:17;;;;;;;7.85;4.13;;;;;;;;;;5093389;28;20017;-68
2021/06/03 02:53:44;;;;;;;5.85;3.20;;;;;;;;;;5092421;28;20017;-68
2021/06/03 02:56:10;;;;;;;6.53;3.33;;;;;;;;;;5093084;28;20023;-68
2021/06/03 02:58:37;;;;;;;3.20;2.67;;;;;;;;;;5093756;28;20032;-68
2021/06/03 03:01:03;;;;;;;5.30;3.60;;;;;;;;;;5092912;28;20335;-69
2021/06/03 03:03:29;;;;;;;6.90;3.03;;;;;;;;;;5097285;28;20008;-68
2021/06/03 03:05:56;;;;;;;2.95;2.65;;;;;;;;;;5097208;28;20012;-67
2021/06/03 03:08:22;;;;;;;6.32;3.00;;;;;;;;;;5097915;28;20445;-67
2021/06/03 03:10:51;;;;;;;3.20;2.60;;;;;;;;;;5097101;28;20073;-68
2021/06/03 03:13:17;;;;;;;2.33;1.45;;;;;;;;;;5097375;28;20016;-70
2021/06/03 03:15:44;;;;;;;6.10;2.35;;;;;;;;;;5097063;28;20103;-68
2021/06/03 03:18:10;;;;;;;4.45;2.33;;;;;;;;;;5096892;28;20132;-68
2021/06/03 03:20:37;;;;;;;2.65;1.98;;;;;;;;;;5097263;28;20511;-68
2021/06/03 03:23:04;;;;;;;5.35;2.75;;;;;;;;;;5097194;28;20016;-69
2021/06/03 03:25:31;;;;;;;2.75;2.55;;;;;;;;;;5095552;28;20020;-69
2021/06/03 03:27:57;;;;;;;6.53;1.77;;;;;;;;;;5096508;28;20012;-68
2021/06/03 03:30:25;;;;;;;2.07;1.97;;;;;;;;;;5095755;28;20253;-70
2021/06/03 03:32:51;;;;;;;4.43;3.15;;;;;;;;;;5096331;28;20023;-69
2021/06/03 03:35:18;;;;;;;4.30;1.52;;;;;;;;;;5095670;28;20535;-69
2021/06/03 03:37:45;;;;;;;1.67;1.58;;;;;;;;;;5095293;28;20045;-69
2021/06/03 03:40:13;;;;;;;3.33;2.40;;;;;;;;;;5096494;28;20028;-67
2021/06/03 03:42:39;;;;;;;3.58;2.40;;;;;;;;;;5096820;28;20016;-68
2021/06/03 03:45:07;;;;;;;7.00;2.67;;;;;;;;;;5096461;28;20008;-68
2021/06/03 03:47:33;;;;;;;4.72;1.83;;;;;;;;;;5095429;28;20099;-68
2021/06/03 03:49:59;;;;;;;5.45;2.30;;;;;;;;;;5094786;28;20113;-67
2021/06/03 03:52:25;;;;;;;8.82;2.53;;;;;;;;;;5094843;28;20452;-69
2021/06/03 03:54:51;;;;;;;2.80;2.10;;;;;;;;;;5096321;28;20047;-69
2021/06/03 03:57:18;;;;;;;9.98;3.03;;;;;;;;;;5096426;28;20028;-68
2021/06/03 03:59:44;;;;;;;2.42;2.22;;;;;;;;;;5095833;28;20023;-68
2021/06/03 04:02:11;;;;;;;12.73;4.60;;;;;;;;;;5095140;28;20020;-69
2021/06/03 04:04:37;;;;;;;6.25;1.88;;;;;;;;;;5095466;28;20016;-69
2021/06/03 04:07:03;;;;;;;6.93;2.85;;;;;;;;;;5093913;28;20012;-68
2021/06/03 04:09:29;;;;;;;4.85;2.10;;;;;;;;;;5094434;28;20020;-70
2021/06/03 04:11:55;;;;;;;4.40;2.78;;;;;;;;;;5094450;28;20445;-68
2021/06/03 04:14:22;;;;;;;4.18;2.00;;;;;;;;;;5095061;28;20020;-68
2021/06/03 04:16:48;;;;;;;6.10;2.33;;;;;;;;;;5095783;28;20020;-67
2021/06/03 04:19:14;;;;;;;6.07;2.78;;;;;;;;;;5095661;28;20047;-68
2021/06/03 04:21:40;;;;;;;4.95;2.05;;;;;;;;;;5095845;28;20013;-68
2021/06/03 04:24:06;;;;;;;5.30;2.30;;;;;;;;;;5096396;28;20047;-67
2021/06/03 04:26:34;;;;;;;3.75;2.42;;;;;;;;;;5095705;28;20457;-68
2021/06/03 04:29:00;;;;;;;3.30;2.05;;;;;;;;;;5094603;28;20457;-69
2021/06/03 04:31:26;;;;;;;4.60;2.75;;;;;;;;;;5096121;28;20027;-69
2021/06/03 04:33:53;;;;;;;6.20;3.10;;;;;;;;;;5094289;28;20509;-69
2021/06/03 04:36:19;;;;;;;4.03;1.90;;;;;;;;;;5094473;28;20107;-68
2021/06/03 04:38:45;;;;;;;2.10;1.88;;;;;;;;;;5095634;28;20487;-71
2021/06/03 04:41:11;;;;;;;4.28;3.10;;;;;;;;;;5095087;28;20023;-68
2021/06/03 04:43:37;;;;;;;6.65;2.45;;;;;;;;;;5095602;28;20023;-68
2021/06/03 04:46:04;;;;;;;10.45;2.45;;;;;;;;;;5095272;28;20016;-68
2021/06/03 04:48:30;;;;;;;7.28;2.35;;;;;;;;;;5094976;28;20020;-70
2021/06/03 04:50:57;;;;;;;5.82;2.80;;;;;;;;;;5094190;28;20116;-70
2021/06/03 04:53:23;;;;;;;6.65;2.63;;;;;;;;;;5094217;28;20103;-68
2021/06/03 04:55:49;;;;;;;5.00;1.95;;;;;;;;;;5095357;28;20069;-67
2021/06/03 04:58:15;;;;;;;6.50;2.40;;;;;;;;;;5095331;28;20055;-68
2021/06/03 05:00:42;;;;;;;4.35;2.03;;;;;;;;;;5095063;28;20417;-67
2021/06/03 05:03:09;;;;;;;4.38;2.35;;;;;;;;;;5094975;28;20008;-75
2021/06/03 05:05:36;;;;;;;4.03;2.15;;;;;;;;;;5093953;28;20107;-68
2021/06/03 05:08:03;;;;;;;2.88;2.50;;;;;;;;;;5094901;28;20457;-67
2021/06/03 05:10:29;;;;;;;8.48;2.60;;;;;;;;;;5094848;28;20016;-67
2021/06/03 05:12:56;;;;;;;5.18;2.88;;;;;;;;;;5095366;28;20020;-67
2021/06/03 05:15:23;;;;;;;5.63;2.97;;;;;;;;;;5095314;28;20020;-67
2021/06/03 05:17:51;;;;;;;6.93;2.97;;;;;;;;;;5093220;28;20759;-67
2021/06/03 05:20:17;;;;;;;5.20;3.10;;;;;;;;;;5094021;28;20050;-68
2021/06/03 05:22:44;;;;;;;7.72;3.35;;;;;;;;;;5094298;28;20024;-67
2021/06/03 05:25:13;;;;;;;10.80;4.05;;;;;;;;;;5093901;28;20023;-67
2021/06/03 05:27:39;;;;;;;8.88;3.22;;;;;;;;;;5095078;28;20103;-67
2021/06/03 05:30:06;;;;;;;8.75;2.40;;;;;;;;;;5094646;28;20066;-67
2021/06/03 05:32:32;;;;;;;;;;;;;;;;;;5095131;28;20023;-66
2021/06/03 05:34:59;;;;;;;4.00;1.92;;;;;;;;;;5094914;28;19900;-68
2021/06/03 05:37:25;;;;;;;5.47;1.95;;;;;;;;;;5094069;28;20089;-67
2021/06/03 05:39:51;;;;;;;2.40;1.48;;;;;;;;;;5094555;28;20039;-65
2021/06/03 05:42:18;;;;;;;9.23;2.22;;;;;;;;;;5094529;28;20102;-65
2021/06/03 05:44:44;;;;;;;8.10;2.25;;;;;;;;;;5093984;28;20020;-64
2021/06/03 05:47:10;;;;;;;4.10;2.05;;;;;;;;;;5094520;28;20457;-67
2021/06/03 05:49:36;;;;;;;8.95;2.40;;;;;;;;;;5094414;28;20028;-67
2021/06/03 05:52:03;;;;;;;7.78;2.40;;;;;;;;;;5094503;28;20583;-66
2021/06/03 05:54:29;;;;;;;8.53;3.37;;;;;;;;;;5094338;28;20097;-71
2021/06/03 05:56:56;;;;;;;7.90;2.05;;;;;;;;;;5094321;28;20046;-67
2021/06/03 05:59:22;;;;;;;2.40;2.20;;;;;;;;;;5093949;28;20028;-67
2021/06/03 06:01:48;;;;;;;8.20;2.08;;;;;;;;;;5093923;28;20019;-66
2021/06/03 06:07:01;;;;;;;5.30;2.38;;;;;;;;;;5082820;28;20453;-71
2021/06/03 06:09:27;;;;;;;2.95;1.88;;;;;;;;;;5093936;28;20377;-68
2021/06/03 06:11:53;;;;;;;6.28;1.52;;;;;;;;;;5093790;28;20050;-68
2021/06/03 06:14:19;;;;;;;1.70;1.17;;;;;;;;;;5094378;28;20028;-68
2021/06/03 06:16:46;;;;;;;3.90;1.60;;;;;;;;;;5094143;28;20380;-67
2021/06/03 06:19:12;;;;;;;7.13;2.33;;;;;;;;;;5093579;28;20461;-70
2021/06/03 06:21:38;;;;;;;7.97;1.58;;;;;;;;;;5093651;28;20411;-68
2021/06/03 06:24:05;;;;;;;3.92;2.40;;;;;;;;;;5094223;28;20016;-68
2021/06/03 06:26:33;;;;;;;;;;;;;;;;;;5094340;28;20063;-68
2021/06/03 06:28:59;;;;;;;7.03;2.05;;;;;;;;;;5092491;28;19900;-70
2021/06/03 06:31:25;;;;;;;2.90;1.42;;;;;;;;;;5093624;28;20021;-70
2021/06/03 06:33:52;;;;;;;5.82;2.00;;;;;;;;;;5092295;28;20532;-71
2021/06/03 06:36:18;;;;;;;2.65;1.70;;;;;;;;;;5096946;28;20026;-74
2021/06/03 06:38:44;;;;;;;2.42;1.13;;;;;;;;;;5096652;28;20024;-73
2021/06/03 06:41:11;;;;;;;3.63;1.58;;;;;;;;;;5097699;28;20445;-73
2021/06/03 06:43:37;;;;;;;2.40;1.33;;;;;;;;;;5097956;28;20020;-71
2021/06/03 06:46:04;;;;;;;3.00;0.73;;;;;;;;;;5096673;28;20516;-73
2021/06/03 06:48:31;;;;;;;3.53;0.73;;;;;;;;;;5097599;28;20016;-70
2021/06/03 06:50:57;;;;;;;6.85;1.08;;;;;;;;;;5097859;28;20123;-74
2021/06/03 06:53:25;;;;;;;7.65;1.35;;;;;;;;;;5096555;28;20023;-73
2021/06/03 06:55:52;;;;;;;2.90;1.35;;;;;;;;;;5096377;28;20461;-72
2021/06/03 06:58:18;;;;;;;3.85;1.05;;;;;;;;;;5096445;28;20016;-72
2021/06/03 07:00:44;;;;;;;4.00;1.23;;;;;;;;;;5096734;28;20081;-73
2021/06/03 07:03:11;;;;;;;6.10;1.25;;;;;;;;;;5094824;28;20012;-74
2021/06/03 07:05:38;;;;;;;4.68;1.20;;;;;;;;;;5094880;28;20027;-72
2021/06/03 07:08:04;;;;;;;2.85;1.20;;;;;;;;;;5096165;28;20521;-71
2021/06/03 07:10:31;;;;;;;2.72;0.88;;;;;;;;;;5095736;28;20103;-72
2021/06/03 07:15:30;;;;;;;2.92;0.90;;;;;;;;;;5116997;27;20341;-71
2021/06/03 07:17:56;;;;;;;4.50;1.23;;;;;;;;;;5099855;28;20026;-72
2021/06/03 07:20:24;;;;;;;3.97;1.88;;;;;;;;;;5098359;28;20024;-71
2021/06/03 07:22:51;;;;;;;1.35;1.15;;;;;;;;;;5101126;28;20579;-71
2021/06/03 07:25:19;;;;;;;;;;;;;;;;;;5099711;28;20032;-72
2021/06/03 07:27:45;;;;;;;1.05;1.02;;;;;;;;;;5093323;28;19907;-72
2021/06/03 07:30:12;;;;;;;1.73;1.20;;;;;;;;;;5091038;28;20012;-71
2021/06/03 07:32:39;;;;;;;7.32;1.17;;;;;;;;;;5091115;28;20012;-72
2021/06/03 07:35:09;;;;;;;4.30;0.93;;;;;;;;;;5091074;28;20020;-72
2021/06/03 07:37:35;;;;;;;6.25;1.33;;;;;;;;;;5089499;28;20055;-73
2021/06/03 07:40:01;;;;;;;2.37;0.80;;;;;;;;;;5089701;28;20019;-72
2021/06/03 07:42:27;;;;;;;2.25;0.88;;;;;;;;;;5089347;28;20018;-73
2021/06/03 07:44:54;;;;;;;5.18;2.00;;;;;;;;;;5089635;28;20016;-72
2021/06/03 07:47:20;;;;;;;7.28;0.95;;;;;;;;;;5090830;28;20457;-72
2021/06/03 07:49:46;;;;;;;1.30;0.45;;;;;;;;;;5089354;28;20028;-70
2021/06/03 07:52:12;;;;;;;2.75;0.95;;;;;;;;;;5090773;28;20468;-71
2021/06/03 07:54:38;;;;;;;2.50;0.90;;;;;;;;;;5089063;28;20028;-72
2021/06/03 07:57:05;;;;;;;2.15;0.70;;;;;;;;;;5091192;28;20016;-72
2021/06/03 07:59:31;;;;;;;3.28;1.00;;;;;;;;;;5089284;28;20024;-71
2021/06/03 08:01:57;;;;;;;1.00;0.70;;;;;;;;;;5088966;28;20020;-71
2021/06/03 08:04:23;;;;;;;3.75;0.77;;;;;;;;;;5089211;28;20024;-71
2021/06/03 08:06:49;;;;;;;6.85;1.30;;;;;;;;;;5090497;28;20099;-75
2021/06/03 08:09:17;;;;;;;7.20;1.23;;;;;;;;;;5090148;28;20016;-73
2021/06/03 08:11:44;;;;;;;2.05;0.80;;;;;;;;;;5089120;28;20016;-73
2021/06/03 08:14:11;;;;;;;2.58;1.45;;;;;;;;;;5089813;28;20135;-71
2021/06/03 08:16:37;;;;;;;0.43;0.40;;;;;;;;;;5090016;28;20016;-73
2021/06/03 08:19:03;;;;;;;4.85;1.23;;;;;;;;;;5088936;28;20084;-72
2021/06/03 08:21:29;;;;;;;2.40;1.50;;;;;;;;;;5088616;28;20024;-72
2021/06/03 08:23:55;;;;;;;4.68;1.67;;;;;;;;;;5090165;28;20353;-70
2021/06/03 08:26:24;;;;;;;5.47;0.57;;;;;;;;;;5078039;28;20020;-72
2021/06/03 08:28:51;;;;;;;4.75;0.90;;;;;;;;;;5075829;28;20022;-72
2021/06/03 08:31:17;;;;;;;1.42;0.80;;;;;;;;;;5075260;28;20027;-73
2021/06/03 08:33:43;;;;;;;2.97;0.32;;;;;;;;;;5076091;28;20020;-74
2021/06/03 08:36:10;;;;;;;2.75;0.93;;;;;;;;;;5074940;28;20036;-72
2021/06/03 08:38:37;;;;;;;0.65;0.60;;;;;;;;;;5075142;28;20019;-73
2021/06/03 08:41:03;;;;;;;2.83;0.93;;;;;;;;;;5075102;28;20353;-74
2021/06/03 08:43:31;;;;;;;2.50;0.80;;;;;;;;;;5075776;28;20023;-74
2021/06/03 08:45:58;;;;;;;4.95;0.90;;;;;;;;;;5076582;28;20463;-72
2021/06/03 08:48:24;;;;;;;1.35;0.52;;;;;;;;;;5076252;28;20118;-73
2021/06/03 08:50:52;;;;;;;2.35;0.50;;;;;;;;;;5074601;28;20130;-75
2021/06/03 08:53:18;;;;;;;1.73;0.70;;;;;;;;;;5074800;28;20481;-71
2021/06/03 08:58:30;;;;;;;4.75;1.38;;;;;;;;;;5076403;28;20070;-72
2021/06/03 09:00:57;;;;;;;2.75;0.60;;;;;;;;;;5076015;28;20021;-73
2021/06/03 09:03:23;;;;;;;;;;;;;;;;;;5075693;28;20422;-73
2021/06/03 09:05:50;;;;;;;0.77;0.77;;;;;;;;;;5074641;28;19927;-75
2021/06/03 09:08:16;;;;;;;7.00;1.07;;;;;;;;;;5074617;28;20025;-72
2021/06/03 09:10:43;;;;;;;3.97;1.77;;;;;;;;;;5075509;28;20669;-74
2021/06/03 09:13:09;;;;;;;1.58;0.93;;;;;;;;;;5074201;28;20016;-74
2021/06/03 09:15:35;;;;;;;5.00;1.40;;;;;;;;;;5075963;28;20016;-72
2021/06/03 09:18:03;;;;;;;7.47;0.98;;;;;;;;;;5075338;28;20023;-73
2021/06/03 09:20:29;;;;;;;1.15;0.63;;;;;;;;;;5074326;28;20027;-71
2021/06/03 09:22:55;;;;;;;6.25;0.55;;;;;;;;;;5075345;28;20062;-75
2021/06/03 09:25:36;;;;;;;3.38;1.10;;;;;;;;;;5073878;28;20169;-73
2021/06/03 09:28:18;;;;;;;1.55;1.17;;;;;;;;;;5074988;28;20074;-75
2021/06/03 09:30:55;;;;;;;2.35;0.98;;;;;;;;;;5075356;28;20533;-72
2021/06/03 09:33:34;;;;;;;5.57;1.08;;;;;;;;;;5073380;28;20058;-73
2021/06/03 09:36:00;;;;;;;5.00;1.15;;;;;;;;;;5075932;28;20032;-72
2021/06/03 09:38:27;;;;;;;3.05;0.85;;;;;;;;;;5072766;28;20365;-73
2021/06/03 09:40:53;;;;;;;4.80;1.03;;;;;;;;;;5073927;28;20024;-73
2021/06/03 09:43:20;;;;;;;2.37;0.90;;;;;;;;;;5074884;28;20102;-73
2021/06/03 09:46:02;;;;;;;8.82;1.25;;;;;;;;;;5073529;28;20158;-73
2021/06/03 09:48:39;;;;;;;4.35;1.17;;;;;;;;;;5073755;28;20112;-73
2021/06/03 09:51:17;;;;;;;0.82;0.77;;;;;;;;;;5073699;28;20021;-73
2021/06/03 09:53:50;;;;;;;6.10;0.68;;;;;;;;;;5073275;28;20024;-73
2021/06/03 09:56:20;;;;;;;0.90;0.90;;;;;;;;;;5074288;28;20028;-73
2021/06/03 09:58:46;;;;;;;4.70;1.23;;;;;;;;;;5073541;28;20048;-73
2021/06/03 10:01:12;;;;;;;5.10;1.17;;;;;;;;;;5073175;28;20055;-74
2021/06/03 10:03:51;;;;;;;5.53;0.97;;;;;;;;;;5073281;28;20340;-72
2021/06/03 10:06:18;;;;;;;4.85;1.27;;;;;;;;;;5074513;28;20023;-75
2021/06/03 10:08:48;;;;;;;4.00;0.82;;;;;;;;;;5074855;28;20023;-74
2021/06/03 10:11:34;;;;;;;3.83;0.55;;;;;;;;;;5073259;28;20024;-71
2021/06/03 10:14:19;;;;;;;3.45;1.25;;;;;;;;;;5072717;28;20044;-73
2021/06/03 10:16:45;;;;;;;7.00;1.70;;;;;;;;;;5073171;28;20016;-74
2021/06/03 10:19:27;;;;;;;10.33;1.27;;;;;;;;;;5073179;28;20077;-72
2021/06/03 10:22:11;;;;;;;1.40;1.30;;;;;;;;;;5074384;28;20070;-74
2021/06/03 10:24:56;;;;;;;2.78;1.60;;;;;;;;;;5073000;28;20025;-71
2021/06/03 10:27:24;;;;;;;2.40;1.20;;;;;;;;;;5074441;28;20019;-69
2021/06/03 10:29:50;;;;;;;3.05;1.27;;;;;;;;;;5074257;28;20397;-67
2021/06/03 10:32:21;;;;;;;4.10;1.80;;;;;;;;;;5074259;28;20059;-69
2021/06/03 10:34:47;;;;;;;2.40;1.15;;;;;;;;;;5073998;28;20048;-70
2021/06/03 10:37:14;;;;;;;1.65;0.70;;;;;;;;;;5074348;28;20078;-68
2021/06/03 10:39:41;;;;;;;9.32;1.20;;;;;;;;;;5073862;28;20099;-70
2021/06/03 10:42:08;;;;;;;3.00;1.35;;;;;;;;;;5073722;28;20059;-69
2021/06/03 10:44:35;;;;;;;4.55;1.10;;;;;;;;;;5074155;28;20024;-68
2021/06/03 10:47:01;;;;;;;2.88;1.58;;;;;;;;;;5073747;28;20354;-69
2021/06/03 10:49:31;;;;;;;4.13;1.33;;;;;;;;;;5073513;28;20048;-69
2021/06/03 10:51:58;;;;;;;3.67;0.80;;;;;;;;;;5074050;28;20252;-69
2021/06/03 10:54:38;;;;;;;1.42;1.08;;;;;;;;;;5073922;28;20024;-68
2021/06/03 10:57:04;;;;;;;4.80;1.33;;;;;;;;;;5073436;28;20342;-69
2021/06/03 10:59:31;;;;;;;9.35;1.27;;;;;;;;;;5074216;28;20032;-69
2021/06/03 11:01:59;;;;;;;;;;;;;;;;;;5074255;28;20476;-69
2021/06/03 11:04:29;;;;;;;3.15;1.13;;;;;;;;;;5073740;28;19900;-68
2021/06/03 11:06:55;;;;;;;4.68;1.35;;;;;;;;;;5073355;28;20315;-68
2021/06/03 11:09:28;;;;;;;4.15;1.40;;;;;;;;;;5072961;28;20053;-74
2021/06/03 11:12:10;;;;;;;3.20;1.25;;;;;;;;;;5073830;28;20480;-73
2021/06/03 11:15:08;;;;;;;4.47;1.17;;;;;;;;;;5073347;28;20048;-74
2021/06/03 11:17:51;;;;;;;2.17;1.38;;;;;;;;;;5061065;28;20105;-70
2021/06/03 11:20:17;;;;;;;4.30;1.00;;;;;;;;;;5072677;28;20016;-70
2021/06/03 11:22:43;;;;;;;;;;;;;;;;;;5074372;28;20097;-70
2021/06/03 11:25:29;;;;;;;3.05;1.10;;;;;;;;;;5073080;28;19954;-68
2021/06/03 11:27:56;;;;;;;2.13;1.20;;;;;;;;;;5073757;28;20024;-64
2021/06/03 11:30:32;;;;;;;2.70;1.20;;;;;;;;;;5073316;28;20016;-66
2021/06/03 11:32:58;;;;;;;3.20;1.13;;;;;;;;;;5073726;28;20020;-65
2021/06/03 11:35:29;;;;;;;1.70;1.13;;;;;;;;;;5073628;28;20577;-71
2021/06/03 11:37:55;;;;;;;4.68;1.50;;;;;;;;;;5073346;28;20245;-70
2021/06/03 11:40:23;;;;;;;2.73;1.27;;;;;;;;;;5073246;28;20020;-68
2021/06/03 11:42:55;;;;;;;2.08;1.10;;;;;;;;;;5072972;28;20376;-69
2021/06/03 11:45:24;;;;;;;3.20;1.42;;;;;;;;;;5073398;28;20427;-71
2021/06/03 11:47:52;;;;;;;2.08;1.50;;;;;;;;;;5073731;28;20052;-69
2021/06/03 11:50:18;;;;;;;2.90;1.10;;;;;;;;;;5072655;28;20029;-71
2021/06/03 11:55:38;;;;;;;5.40;1.58;;;;;;;;;;5073268;28;20026;-71
2021/06/03 11:58:25;;;;;;;6.68;1.38;;;;;;;;;;5071789;28;20032;-73
2021/06/03 12:00:53;;;;;;;5.00;1.17;;;;;;;;;;5074754;28;20476;-74
2021/06/03 12:03:33;;;;;;;3.33;1.08;;;;;;;;;;5075796;28;20050;-72
2021/06/03 12:06:04;;;;;;;2.75;1.17;;;;;;;;;;5076683;28;20021;-72
2021/06/03 12:08:36;;;;;;;4.05;1.58;;;;;;;;;;5076665;28;20089;-74
2021/06/03 12:11:03;;;;;;;1.67;1.58;;;;;;;;;;5077768;28;20013;-72
2021/06/03 12:13:30;;;;;;;3.67;0.95;;;;;;;;;;5074904;28;20072;-73
2021/06/03 12:15:56;;;;;;;4.55;1.30;;;;;;;;;;5075734;28;20107;-73
2021/06/03 12:18:22;;;;;;;3.42;1.48;;;;;;;;;;5075505;28;20508;-73
2021/06/03 12:20:49;;;;;;;2.70;2.43;;;;;;;;;;5076504;28;20016;-72
2021/06/03 12:23:15;;;;;;;4.38;1.55;;;;;;;;;;5075397;28;20245;-72
2021/06/03 12:25:42;;;;;;;2.97;1.27;;;;;;;;;;5076713;28;20024;-71
2021/06/03 12:28:10;;;;;;;2.85;1.60;;;;;;;;;;5075020;28;20049;-72
2021/06/03 12:30:37;;;;;;;3.30;1.45;;;;;;;;;;5075266;28;20104;-74
2021/06/03 12:33:04;;;;;;;2.85;1.52;;;;;;;;;;5075782;28;20344;-74
2021/06/03 12:35:32;;;;;;;2.60;1.40;;;;;;;;;;5076426;28;20029;-74
2021/06/03 12:37:58;;;;;;;3.60;0.90;;;;;;;;;;5074892;28;20024;-71
2021/06/03 12:40:25;;;;;;;4.75;1.58;;;;;;;;;;5075248;28;20043;-71
2021/06/03 12:42:59;;;;;;;5.15;1.45;;;;;;;;;;5075098;28;20070;-74
2021/06/03 12:45:28;;;;;;;3.42;1.38;;;;;;;;;;5076066;28;20020;-72
2021/06/03 12:47:55;;;;;;;3.08;1.13;;;;;;;;;;5074654;28;20069;-71
2021/06/03 12:50:21;;;;;;;3.22;1.30;;;;;;;;;;5074985;28;20496;-72
2021/06/03 12:52:48;;;;;;;3.80;1.00;;;;;;;;;;5075954;28;20024;-72
2021/06/03 12:55:15;;;;;;;8.48;1.75;;;;;;;;;;5074223;28;20028;-73
2021/06/03 12:57:42;;;;;;;4.30;1.10;;;;;;;;;;5076169;28;20225;-73
2021/06/03 13:00:13;;;;;;;1.30;1.23;;;;;;;;;;5074813;28;20103;-72
2021/06/03 13:02:39;;;;;;;3.47;1.25;;;;;;;;;;5074433;28;20020;-72
2021/06/03 13:05:11;;;;;;;5.28;1.23;;;;;;;;;;5075965;28;20016;-73
2021/06/03 13:07:37;;;;;;;4.15;1.42;;;;;;;;;;5075675;28;20024;-73
2021/06/03 13:10:11;;;;;;;2.22;0.70;;;;;;;;;;5074319;28;20031;-71
2021/06/03 13:12:45;;;;;;;5.72;1.48;;;;;;;;;;5075731;28;20459;-71
2021/06/03 13:15:11;;;;;;;3.03;1.25;;;;;;;;;;5075858;28;20040;-72
2021/06/03 13:17:39;;;;;;;2.33;1.40;;;;;;;;;;5076059;28;20139;-71
2021/06/03 13:20:16;;;;;;;1.50;1.20;;;;;;;;;;5075697;28;20013;-72
2021/06/03 13:22:47;;;;;;;2.95;0.90;;;;;;;;;;5074004;28;20024;-71
2021/06/03 13:25:13;;;;;;;3.55;1.17;;;;;;;;;;5074298;28;20111;-75
2021/06/03 13:27:44;;;;;;;7.75;1.63;;;;;;;;;;5075517;28;20057;-72
2021/06/03 13:30:13;;;;;;;3.97;1.77;;;;;;;;;;5075188;28;20511;-72
2021/06/03 13:32:39;;;;;;;1.13;1.02;;;;;;;;;;5074683;28;20107;-72
2021/06/03 13:35:10;;;;;;;5.93;1.98;;;;;;;;;;5075301;28;20021;-71
2021/06/03 13:37:37;;;;;;;1.77;1.38;;;;;;;;;;5074707;28;20051;-71
2021/06/03 13:40:07;;;;;;;6.45;1.77;;;;;;;;;;5077562;28;20024;-71
2021/06/03 13:42:37;;;;;;;1.52;1.30;;;;;;;;;;5085275;28;20099;-72
2021/06/03 13:45:09;;;;;;;3.50;1.13;;;;;;;;;;5083667;28;20047;-74
2021/06/03 13:47:35;;;;;;;5.18;1.15;;;;;;;;;;5081506;28;20365;-71
2021/06/03 13:50:13;;;;;;;2.70;1.63;;;;;;;;;;5083818;28;20023;-70
2021/06/03 13:52:47;;;;;;;2.70;1.10;;;;;;;;;;5079614;28;20012;-71
2021/06/03 13:55:23;;;;;;;4.50;1.02;;;;;;;;;;5081217;28;20406;-70
2021/06/03 13:57:50;;;;;;;2.67;1.45;;;;;;;;;;5081356;28;20409;-69
2021/06/03 14:00:23;;;;;;;2.83;0.93;;;;;;;;;;5083312;28;20016;-71
2021/06/03 14:03:01;;;;;;;5.22;1.33;;;;;;;;;;5083056;28;20405;-69
2021/06/03 14:05:28;;;;;;;1.40;1.00;;;;;;;;;;5082587;28;20073;-69
2021/06/03 14:08:07;;;;;;;6.03;0.95;;;;;;;;;;5081029;28;20021;-71
2021/06/03 14:10:34;;;;;;;3.10;1.40;;;;;;;;;;5082226;28;20453;-71
2021/06/03 14:13:04;;;;;;;5.50;1.35;;;;;;;;;;5083500;28;20027;-69
2021/06/03 14:15:40;;;;;;;4.28;1.48;;;;;;;;;;5084246;28;20025;-70
2021/06/03 14:18:07;;;;;;;4.15;0.93;;;;;;;;;;5080811;28;20070;-71
2021/06/03 14:20:33;;;;;;;2.67;0.85;;;;;;;;;;5082021;28;20017;-70
2021/06/03 14:23:00;;;;;;;3.70;0.80;;;;;;;;;;5082998;28;20468;-70
2021/06/03 14:25:37;;;;;;;3.80;0.88;;;;;;;;;;5083230;28;20458;-69
2021/06/03 14:28:11;;;;;;;8.07;1.70;;;;;;;;;;5081947;28;20064;-69
2021/06/03 14:30:39;;;;;;;2.33;1.13;;;;;;;;;;5086885;28;20051;-68
2021/06/03 14:33:06;;;;;;;3.97;0.82;;;;;;;;;;5094424;28;20019;-68
2021/06/03 14:35:32;;;;;;;;;;;;;;;;;;5093184;28;20078;-71
2021/06/03 14:38:00;;;;;;;2.63;1.20;;;;;;;;;;5093107;28;19950;-67
2021/06/03 14:40:36;;;;;;;1.88;0.95;;;;;;;;;;5093968;28;20098;-71
2021/06/03 14:43:09;;;;;;;2.90;1.30;;;;;;;;;;5094256;28;20019;-69
2021/06/03 14:45:36;;;;;;;5.40;1.38;;;;;;;;;;5094489;28;20024;-70
2021/06/03 14:48:02;;;;;;;4.35;1.50;;;;;;;;;;5093576;28;20345;-70
2021/06/03 14:50:36;;;;;;;1.17;1.13;;;;;;;;;;5092893;28;20028;-70
2021/06/03 14:53:04;;;;;;;7.28;1.40;;;;;;;;;;5092545;28;20020;-70
2021/06/03 14:55:31;;;;;;;3.83;0.98;;;;;;;;;;5094150;28;20035;-71
2021/06/03 14:57:58;;;;;;;1.48;1.45;;;;;;;;;;5094046;28;20012;-69
2021/06/03 15:00:26;;;;;;;1.48;0.77;;;;;;;;;;5093722;28;20031;-70
2021/06/03 15:02:52;;;;;;;3.60;2.05;;;;;;;;;;5092708;28;20024;-70